Аэропорт
Игнатьево (UHBB)

 UHBB / BQS
ЗЦ Хабаровск
Хабаровск (UHHH)
Хабаровск (UHHH)
 50.42540, 127.41200  / 638 ft

 UHBB 151100Z 32005MPS 9999 SCT026CB 17/14 Q1000 R36/250160 NOSIG RMK QFE733/0977
 TAF UHBB 150750Z 1509/1609 32006G11MPS 9999 SCT010 BKN020CB FM160000 35007G12MPS 9999 SCT020CB
uhbb_aip_1605, UHBB_j_0220
показать схемы
Название сценария Тип сценария Flight Simulator 9 Flight Simulator X Prepar3D v2 Prepar3D v3 Prepar3D v4 Prepar3D v5 xPlane
UHBB P3Dv4 бесплатный
uhbb-scenery-fs9-1406 бесплатный
uhbb-scenery-xpl-1209 бесплатный


2020 © VATRUS division (Privacy Policy)